sensor_id;sensor_type;location;lat;lon;timestamp;P1;durP1;ratioP1;P2;durP2;ratioP2
24216;SDS011;12356;49.386;8.688;2022-09-09T00:00:15;2.28;;;0.95;;
24216;SDS011;12356;49.386;8.688;2022-09-09T00:03:06;3.53;;;1.10;;
24216;SDS011;12356;49.386;8.688;2022-09-09T00:09:01;4.10;;;1.00;;
24216;SDS011;12356;49.386;8.688;2022-09-09T00:11:51;3.60;;;1.00;;
24216;SDS011;12356;49.386;8.688;2022-09-09T00:14:31;2.13;;;1.10;;
24216;SDS011;12356;49.386;8.688;2022-09-09T00:17:16;3.85;;;1.10;;
24216;SDS011;12356;49.386;8.688;2022-09-09T00:25:49;3.28;;;1.20;;
24216;SDS011;12356;49.386;8.688;2022-09-09T00:28:35;2.92;;;1.00;;
24216;SDS011;12356;49.386;8.688;2022-09-09T00:31:18;3.57;;;0.97;;
24216;SDS011;12356;49.386;8.688;2022-09-09T00:33:53;3.10;;;1.00;;
24216;SDS011;12356;49.386;8.688;2022-09-09T00:36:25;3.60;;;1.02;;
24216;SDS011;12356;49.386;8.688;2022-09-09T00:39:02;7.35;;;1.30;;
24216;SDS011;12356;49.386;8.688;2022-09-09T00:42:36;4.97;;;1.10;;
24216;SDS011;12356;49.386;8.688;2022-09-09T00:52:52;5.43;;;1.23;;
24216;SDS011;12356;49.386;8.688;2022-09-09T00:58:42;2.65;;;0.88;;
24216;SDS011;12356;49.386;8.688;2022-09-09T01:01:20;5.13;;;1.15;;
24216;SDS011;12356;49.386;8.688;2022-09-09T01:03:55;2.97;;;1.25;;
24216;SDS011;12356;49.386;8.688;2022-09-09T01:06:30;3.30;;;1.00;;
24216;SDS011;12356;49.386;8.688;2022-09-09T01:12:03;2.97;;;1.15;;
24216;SDS011;12356;49.386;8.688;2022-09-09T01:14:48;6.13;;;1.33;;
24216;SDS011;12356;49.386;8.688;2022-09-09T01:28:45;5.85;;;1.33;;
24216;SDS011;12356;49.386;8.688;2022-09-09T01:31:51;3.75;;;1.40;;
24216;SDS011;12356;49.386;8.688;2022-09-09T01:34:31;4.25;;;1.17;;
24216;SDS011;12356;49.386;8.688;2022-09-09T01:37:10;6.70;;;1.60;;
24216;SDS011;12356;49.386;8.688;2022-09-09T01:39:42;5.40;;;1.50;;
24216;SDS011;12356;49.386;8.688;2022-09-09T01:42:14;4.95;;;1.55;;
24216;SDS011;12356;49.386;8.688;2022-09-09T01:44:46;5.13;;;1.60;;
24216;SDS011;12356;49.386;8.688;2022-09-09T01:47:17;4.85;;;1.67;;
24216;SDS011;12356;49.386;8.688;2022-09-09T01:49:47;3.45;;;1.42;;
24216;SDS011;12356;49.386;8.688;2022-09-09T01:52:18;3.35;;;1.35;;
24216;SDS011;12356;49.386;8.688;2022-09-09T01:54:48;3.63;;;1.20;;
24216;SDS011;12356;49.386;8.688;2022-09-09T02:08:08;3.75;;;1.35;;
24216;SDS011;12356;49.386;8.688;2022-09-09T02:10:47;5.43;;;1.30;;
24216;SDS011;12356;49.386;8.688;2022-09-09T02:13:25;3.95;;;1.63;;
24216;SDS011;12356;49.386;8.688;2022-09-09T02:15:56;2.72;;;1.40;;
24216;SDS011;12356;49.386;8.688;2022-09-09T02:18:55;3.65;;;1.30;;
24216;SDS011;12356;49.386;8.688;2022-09-09T02:21:43;4.63;;;1.45;;
24216;SDS011;12356;49.386;8.688;2022-09-09T02:24:16;5.57;;;1.40;;
24216;SDS011;12356;49.386;8.688;2022-09-09T02:26:48;3.85;;;1.27;;
24216;SDS011;12356;49.386;8.688;2022-09-09T02:29:25;4.63;;;1.48;;
24216;SDS011;12356;49.386;8.688;2022-09-09T02:32:18;2.45;;;1.10;;
24216;SDS011;12356;49.386;8.688;2022-09-09T02:34:55;4.85;;;1.50;;
24216;SDS011;12356;49.386;8.688;2022-09-09T02:37:31;4.88;;;1.45;;
24216;SDS011;12356;49.386;8.688;2022-09-09T02:40:09;5.72;;;1.55;;
24216;SDS011;12356;49.386;8.688;2022-09-09T02:42:42;4.60;;;1.50;;
24216;SDS011;12356;49.386;8.688;2022-09-09T02:45:18;4.97;;;1.40;;
24216;SDS011;12356;49.386;8.688;2022-09-09T02:47:54;3.88;;;1.50;;
24216;SDS011;12356;49.386;8.688;2022-09-09T02:50:56;6.63;;;1.60;;
24216;SDS011;12356;49.386;8.688;2022-09-09T02:56:31;2.35;;;1.25;;
24216;SDS011;12356;49.386;8.688;2022-09-09T02:59:07;5.38;;;1.60;;
24216;SDS011;12356;49.386;8.688;2022-09-09T03:01:38;4.00;;;1.20;;
24216;SDS011;12356;49.386;8.688;2022-09-09T03:04:10;4.30;;;1.27;;
24216;SDS011;12356;49.386;8.688;2022-09-09T03:06:40;4.60;;;1.15;;
24216;SDS011;12356;49.386;8.688;2022-09-09T03:09:11;5.70;;;1.17;;
24216;SDS011;12356;49.386;8.688;2022-09-09T03:11:42;4.20;;;1.35;;
24216;SDS011;12356;49.386;8.688;2022-09-09T03:14:12;2.10;;;1.02;;
24216;SDS011;12356;49.386;8.688;2022-09-09T03:16:43;4.03;;;1.10;;
24216;SDS011;12356;49.386;8.688;2022-09-09T03:19:13;3.70;;;1.00;;
24216;SDS011;12356;49.386;8.688;2022-09-09T03:21:45;2.63;;;0.82;;
24216;SDS011;12356;49.386;8.688;2022-09-09T03:24:16;3.50;;;1.33;;
24216;SDS011;12356;49.386;8.688;2022-09-09T03:26:47;3.30;;;0.95;;
24216;SDS011;12356;49.386;8.688;2022-09-09T03:29:17;4.05;;;0.90;;
24216;SDS011;12356;49.386;8.688;2022-09-09T03:31:48;1.83;;;0.80;;
24216;SDS011;12356;49.386;8.688;2022-09-09T03:34:20;3.57;;;0.80;;
24216;SDS011;12356;49.386;8.688;2022-09-09T03:36:51;2.58;;;0.80;;
24216;SDS011;12356;49.386;8.688;2022-09-09T03:39:22;1.48;;;0.80;;
24216;SDS011;12356;49.386;8.688;2022-09-09T03:41:52;3.03;;;0.80;;
24216;SDS011;12356;49.386;8.688;2022-09-09T03:44:23;1.58;;;0.90;;
24216;SDS011;12356;49.386;8.688;2022-09-09T03:46:54;3.03;;;0.88;;
24216;SDS011;12356;49.386;8.688;2022-09-09T03:49:24;2.25;;;0.80;;
24216;SDS011;12356;49.386;8.688;2022-09-09T03:51:56;3.17;;;0.80;;
24216;SDS011;12356;49.386;8.688;2022-09-09T03:54:28;4.17;;;0.93;;
24216;SDS011;12356;49.386;8.688;2022-09-09T03:56:58;3.80;;;1.00;;
24216;SDS011;12356;49.386;8.688;2022-09-09T03:59:29;3.55;;;0.82;;
24216;SDS011;12356;49.386;8.688;2022-09-09T04:02:00;3.00;;;0.70;;
24216;SDS011;12356;49.386;8.688;2022-09-09T04:04:32;3.13;;;0.73;;
24216;SDS011;12356;49.386;8.688;2022-09-09T04:07:02;2.33;;;0.63;;
24216;SDS011;12356;49.386;8.688;2022-09-09T04:09:36;2.83;;;0.70;;
24216;SDS011;12356;49.386;8.688;2022-09-09T04:12:06;2.42;;;0.60;;
24216;SDS011;12356;49.386;8.688;2022-09-09T04:14:37;2.10;;;0.77;;
24216;SDS011;12356;49.386;8.688;2022-09-09T04:17:07;2.75;;;0.63;;
24216;SDS011;12356;49.386;8.688;2022-09-09T04:19:38;3.13;;;0.80;;
24216;SDS011;12356;49.386;8.688;2022-09-09T04:22:09;2.28;;;0.70;;
24216;SDS011;12356;49.386;8.688;2022-09-09T04:24:39;3.20;;;0.82;;
24216;SDS011;12356;49.386;8.688;2022-09-09T04:27:10;2.53;;;0.80;;
24216;SDS011;12356;49.386;8.688;2022-09-09T04:29:41;3.58;;;0.70;;
24216;SDS011;12356;49.386;8.688;2022-09-09T04:32:11;2.45;;;0.70;;
24216;SDS011;12356;49.386;8.688;2022-09-09T04:34:42;3.50;;;0.80;;
24216;SDS011;12356;49.386;8.688;2022-09-09T04:37:13;1.45;;;0.70;;
24216;SDS011;12356;49.386;8.688;2022-09-09T04:39:44;2.55;;;0.55;;
24216;SDS011;12356;49.386;8.688;2022-09-09T04:42:15;2.20;;;0.60;;
24216;SDS011;12356;49.386;8.688;2022-09-09T04:44:47;3.60;;;0.77;;
24216;SDS011;12356;49.386;8.688;2022-09-09T04:47:18;2.13;;;0.60;;
24216;SDS011;12356;49.386;8.688;2022-09-09T04:49:48;4.78;;;1.10;;
24216;SDS011;12356;49.386;8.688;2022-09-09T04:52:20;2.42;;;0.55;;
24216;SDS011;12356;49.386;8.688;2022-09-09T04:54:50;1.58;;;0.60;;
24216;SDS011;12356;49.386;8.688;2022-09-09T04:57:22;4.03;;;0.70;;
24216;SDS011;12356;49.386;8.688;2022-09-09T04:59:52;2.60;;;0.60;;
24216;SDS011;12356;49.386;8.688;2022-09-09T05:02:23;2.25;;;0.57;;
24216;SDS011;12356;49.386;8.688;2022-09-09T05:04:53;1.10;;;0.52;;
24216;SDS011;12356;49.386;8.688;2022-09-09T05:07:26;2.00;;;0.70;;
24216;SDS011;12356;49.386;8.688;2022-09-09T05:12:28;3.22;;;0.80;;
24216;SDS011;12356;49.386;8.688;2022-09-09T05:14:58;1.10;;;0.70;;
24216;SDS011;12356;49.386;8.688;2022-09-09T05:17:29;2.70;;;0.60;;
24216;SDS011;12356;49.386;8.688;2022-09-09T05:20:00;1.08;;;0.60;;
24216;SDS011;12356;49.386;8.688;2022-09-09T05:22:31;3.40;;;0.63;;
24216;SDS011;12356;49.386;8.688;2022-09-09T05:25:01;1.75;;;0.70;;
24216;SDS011;12356;49.386;8.688;2022-09-09T05:27:33;3.90;;;0.85;;
24216;SDS011;12356;49.386;8.688;2022-09-09T05:30:04;1.73;;;0.75;;
24216;SDS011;12356;49.386;8.688;2022-09-09T05:32:35;2.00;;;0.75;;
24216;SDS011;12356;49.386;8.688;2022-09-09T05:35:06;2.72;;;0.70;;
24216;SDS011;12356;49.386;8.688;2022-09-09T05:37:37;3.15;;;1.00;;
24216;SDS011;12356;49.386;8.688;2022-09-09T05:40:08;4.30;;;0.82;;
24216;SDS011;12356;49.386;8.688;2022-09-09T05:42:40;3.08;;;0.82;;
24216;SDS011;12356;49.386;8.688;2022-09-09T05:45:11;3.70;;;0.82;;
24216;SDS011;12356;49.386;8.688;2022-09-09T05:47:42;3.22;;;0.60;;
24216;SDS011;12356;49.386;8.688;2022-09-09T05:50:12;2.50;;;0.93;;
24216;SDS011;12356;49.386;8.688;2022-09-09T05:52:44;4.65;;;0.75;;
24216;SDS011;12356;49.386;8.688;2022-09-09T05:55:15;2.55;;;0.70;;
24216;SDS011;12356;49.386;8.688;2022-09-09T05:57:48;3.22;;;0.80;;
24216;SDS011;12356;49.386;8.688;2022-09-09T06:00:20;2.80;;;0.80;;
24216;SDS011;12356;49.386;8.688;2022-09-09T06:02:51;2.50;;;0.80;;
24216;SDS011;12356;49.386;8.688;2022-09-09T06:05:22;3.25;;;0.80;;
24216;SDS011;12356;49.386;8.688;2022-09-09T06:07:54;2.50;;;1.00;;
24216;SDS011;12356;49.386;8.688;2022-09-09T06:10:25;1.90;;;0.80;;
24216;SDS011;12356;49.386;8.688;2022-09-09T06:12:56;1.73;;;0.70;;
24216;SDS011;12356;49.386;8.688;2022-09-09T06:15:26;3.55;;;1.02;;
24216;SDS011;12356;49.386;8.688;2022-09-09T06:17:57;1.42;;;0.60;;
24216;SDS011;12356;49.386;8.688;2022-09-09T06:20:28;1.55;;;0.90;;
24216;SDS011;12356;49.386;8.688;2022-09-09T06:25:31;3.05;;;0.93;;
24216;SDS011;12356;49.386;8.688;2022-09-09T06:28:04;4.97;;;0.90;;
24216;SDS011;12356;49.386;8.688;2022-09-09T06:30:34;3.55;;;0.80;;
24216;SDS011;12356;49.386;8.688;2022-09-09T06:33:06;3.47;;;0.82;;
24216;SDS011;12356;49.386;8.688;2022-09-09T06:35:36;2.90;;;0.77;;
24216;SDS011;12356;49.386;8.688;2022-09-09T06:38:07;2.47;;;0.73;;
24216;SDS011;12356;49.386;8.688;2022-09-09T06:40:38;3.00;;;0.80;;
24216;SDS011;12356;49.386;8.688;2022-09-09T06:43:09;2.15;;;0.60;;
24216;SDS011;12356;49.386;8.688;2022-09-09T06:45:40;9.98;;;0.85;;
24216;SDS011;12356;49.386;8.688;2022-09-09T06:48:10;3.83;;;0.90;;
24216;SDS011;12356;49.386;8.688;2022-09-09T06:50:41;3.58;;;0.90;;
24216;SDS011;12356;49.386;8.688;2022-09-09T06:53:16;2.40;;;0.90;;
24216;SDS011;12356;49.386;8.688;2022-09-09T06:55:49;3.28;;;0.85;;
24216;SDS011;12356;49.386;8.688;2022-09-09T06:58:19;3.85;;;0.90;;
24216;SDS011;12356;49.386;8.688;2022-09-09T07:00:52;3.95;;;0.85;;
24216;SDS011;12356;49.386;8.688;2022-09-09T07:03:22;4.78;;;0.90;;
24216;SDS011;12356;49.386;8.688;2022-09-09T07:05:54;2.53;;;0.90;;
24216;SDS011;12356;49.386;8.688;2022-09-09T07:08:26;3.88;;;0.80;;
24216;SDS011;12356;49.386;8.688;2022-09-09T07:11:06;4.03;;;0.80;;
24216;SDS011;12356;49.386;8.688;2022-09-09T07:13:38;3.65;;;0.82;;
24216;SDS011;12356;49.386;8.688;2022-09-09T07:16:10;5.28;;;0.95;;
24216;SDS011;12356;49.386;8.688;2022-09-09T07:18:43;4.57;;;0.90;;
24216;SDS011;12356;49.386;8.688;2022-09-09T07:21:14;5.45;;;1.15;;
24216;SDS011;12356;49.386;8.688;2022-09-09T07:23:44;2.65;;;0.80;;
24216;SDS011;12356;49.386;8.688;2022-09-09T07:26:16;4.43;;;0.70;;
24216;SDS011;12356;49.386;8.688;2022-09-09T07:28:49;3.60;;;0.80;;
24216;SDS011;12356;49.386;8.688;2022-09-09T07:31:21;5.55;;;0.90;;
24216;SDS011;12356;49.386;8.688;2022-09-09T07:34:02;5.18;;;1.10;;
24216;SDS011;12356;49.386;8.688;2022-09-09T07:36:37;2.87;;;0.83;;
24216;SDS011;12356;49.386;8.688;2022-09-09T07:39:10;5.88;;;1.20;;
24216;SDS011;12356;49.386;8.688;2022-09-09T07:41:44;2.97;;;1.20;;
24216;SDS011;12356;49.386;8.688;2022-09-09T07:44:20;3.60;;;1.20;;
24216;SDS011;12356;49.386;8.688;2022-09-09T07:46:52;5.78;;;1.30;;
24216;SDS011;12356;49.386;8.688;2022-09-09T07:49:23;3.78;;;1.02;;
24216;SDS011;12356;49.386;8.688;2022-09-09T07:51:54;7.10;;;1.20;;
24216;SDS011;12356;49.386;8.688;2022-09-09T07:54:24;4.82;;;0.90;;
24216;SDS011;12356;49.386;8.688;2022-09-09T07:56:56;4.72;;;1.00;;
24216;SDS011;12356;49.386;8.688;2022-09-09T07:59:28;4.55;;;1.00;;
24216;SDS011;12356;49.386;8.688;2022-09-09T08:02:00;5.25;;;1.10;;
24216;SDS011;12356;49.386;8.688;2022-09-09T08:04:31;4.30;;;1.20;;
24216;SDS011;12356;49.386;8.688;2022-09-09T08:07:02;5.82;;;1.00;;
24216;SDS011;12356;49.386;8.688;2022-09-09T08:09:33;5.38;;;1.10;;
24216;SDS011;12356;49.386;8.688;2022-09-09T08:12:04;3.88;;;0.90;;
24216;SDS011;12356;49.386;8.688;2022-09-09T08:17:07;6.43;;;1.05;;
24216;SDS011;12356;49.386;8.688;2022-09-09T08:19:38;7.65;;;1.13;;
24216;SDS011;12356;49.386;8.688;2022-09-09T08:22:08;5.97;;;1.00;;
24216;SDS011;12356;49.386;8.688;2022-09-09T08:24:39;5.22;;;1.25;;
24216;SDS011;12356;49.386;8.688;2022-09-09T08:27:11;6.03;;;1.27;;
24216;SDS011;12356;49.386;8.688;2022-09-09T08:29:42;4.55;;;1.10;;
24216;SDS011;12356;49.386;8.688;2022-09-09T08:32:13;5.10;;;1.00;;
24216;SDS011;12356;49.386;8.688;2022-09-09T08:34:43;7.47;;;1.10;;
24216;SDS011;12356;49.386;8.688;2022-09-09T08:37:14;4.65;;;1.40;;
24216;SDS011;12356;49.386;8.688;2022-09-09T08:39:44;2.50;;;0.63;;
24216;SDS011;12356;49.386;8.688;2022-09-09T08:42:26;5.50;;;1.20;;
24216;SDS011;12356;49.386;8.688;2022-09-09T08:45:02;4.78;;;1.00;;
24216;SDS011;12356;49.386;8.688;2022-09-09T08:50:48;4.90;;;1.25;;
24216;SDS011;12356;49.386;8.688;2022-09-09T08:53:24;6.32;;;0.90;;
24216;SDS011;12356;49.386;8.688;2022-09-09T08:56:01;4.85;;;1.10;;
24216;SDS011;12356;49.386;8.688;2022-09-09T08:58:43;3.25;;;1.02;;
24216;SDS011;12356;49.386;8.688;2022-09-09T09:04:28;5.43;;;1.30;;
24216;SDS011;12356;49.386;8.688;2022-09-09T09:12:55;5.80;;;0.93;;
24216;SDS011;12356;49.386;8.688;2022-09-09T09:15:27;3.80;;;1.05;;
24216;SDS011;12356;49.386;8.688;2022-09-09T09:18:07;5.47;;;0.93;;
24216;SDS011;12356;49.386;8.688;2022-09-09T09:20:46;4.25;;;1.05;;
24216;SDS011;12356;49.386;8.688;2022-09-09T09:23:42;7.95;;;0.80;;
24216;SDS011;12356;49.386;8.688;2022-09-09T09:26:20;3.10;;;0.90;;
24216;SDS011;12356;49.386;8.688;2022-09-09T09:28:54;4.75;;;0.95;;
24216;SDS011;12356;49.386;8.688;2022-09-09T09:31:28;3.70;;;0.80;;
24216;SDS011;12356;49.386;8.688;2022-09-09T09:33:58;3.58;;;1.00;;
24216;SDS011;12356;49.386;8.688;2022-09-09T09:36:34;4.25;;;1.20;;
24216;SDS011;12356;49.386;8.688;2022-09-09T09:39:21;4.07;;;1.00;;
24216;SDS011;12356;49.386;8.688;2022-09-09T09:41:58;4.82;;;1.10;;
24216;SDS011;12356;49.386;8.688;2022-09-09T09:44:45;5.55;;;1.30;;
24216;SDS011;12356;49.386;8.688;2022-09-09T09:47:16;2.88;;;1.20;;
24216;SDS011;12356;49.386;8.688;2022-09-09T09:49:55;4.93;;;1.15;;
24216;SDS011;12356;49.386;8.688;2022-09-09T09:52:30;4.15;;;1.00;;
24216;SDS011;12356;49.386;8.688;2022-09-09T09:55:02;4.97;;;1.27;;
24216;SDS011;12356;49.386;8.688;2022-09-09T09:57:37;4.32;;;1.20;;
24216;SDS011;12356;49.386;8.688;2022-09-09T10:00:15;4.50;;;1.20;;
24216;SDS011;12356;49.386;8.688;2022-09-09T10:02:47;5.00;;;1.10;;
24216;SDS011;12356;49.386;8.688;2022-09-09T10:08:05;5.13;;;1.25;;
24216;SDS011;12356;49.386;8.688;2022-09-09T10:19:31;5.47;;;1.30;;
24216;SDS011;12356;49.386;8.688;2022-09-09T10:30:31;5.85;;;1.33;;
24216;SDS011;12356;49.386;8.688;2022-09-09T10:36:28;5.63;;;1.05;;
24216;SDS011;12356;49.386;8.688;2022-09-09T10:39:01;4.32;;;1.05;;
24216;SDS011;12356;49.386;8.688;2022-09-09T10:42:00;3.65;;;0.95;;
24216;SDS011;12356;49.386;8.688;2022-09-09T10:55:48;5.22;;;1.00;;
24216;SDS011;12356;49.386;8.688;2022-09-09T10:58:29;2.05;;;0.70;;
24216;SDS011;12356;49.386;8.688;2022-09-09T11:01:09;2.03;;;0.80;;
24216;SDS011;12356;49.386;8.688;2022-09-09T11:03:47;2.72;;;0.70;;
24216;SDS011;12356;49.386;8.688;2022-09-09T11:06:24;2.60;;;0.90;;
24216;SDS011;12356;49.386;8.688;2022-09-09T11:09:04;3.03;;;1.02;;
24216;SDS011;12356;49.386;8.688;2022-09-09T11:11:38;4.67;;;1.13;;
24216;SDS011;12356;49.386;8.688;2022-09-09T11:16:51;5.30;;;1.13;;
24216;SDS011;12356;49.386;8.688;2022-09-09T11:22:24;5.53;;;1.20;;
24216;SDS011;12356;49.386;8.688;2022-09-09T11:25:13;4.07;;;1.08;;
24216;SDS011;12356;49.386;8.688;2022-09-09T11:36:30;5.28;;;1.13;;
24216;SDS011;12356;49.386;8.688;2022-09-09T11:42:33;3.22;;;1.10;;
24216;SDS011;12356;49.386;8.688;2022-09-09T11:44:56;4.10;;;0.88;;
24216;SDS011;12356;49.386;8.688;2022-09-09T11:47:28;6.72;;;1.00;;
24216;SDS011;12356;49.386;8.688;2022-09-09T11:50:10;4.20;;;0.90;;
24216;SDS011;12356;49.386;8.688;2022-09-09T11:52:45;3.10;;;0.75;;
24216;SDS011;12356;49.386;8.688;2022-09-09T12:00:48;6.18;;;1.00;;
24216;SDS011;12356;49.386;8.688;2022-09-09T12:08:51;3.45;;;0.88;;
24216;SDS011;12356;49.386;8.688;2022-09-09T12:11:26;5.72;;;0.95;;
24216;SDS011;12356;49.386;8.688;2022-09-09T12:13:59;4.50;;;0.90;;
24216;SDS011;12356;49.386;8.688;2022-09-09T12:16:34;4.63;;;0.90;;
24216;SDS011;12356;49.386;8.688;2022-09-09T12:19:20;4.38;;;1.00;;
24216;SDS011;12356;49.386;8.688;2022-09-09T12:22:04;2.78;;;0.77;;
24216;SDS011;12356;49.386;8.688;2022-09-09T12:24:48;4.72;;;1.13;;
24216;SDS011;12356;49.386;8.688;2022-09-09T12:27:44;4.97;;;1.00;;
24216;SDS011;12356;49.386;8.688;2022-09-09T12:30:42;6.20;;;0.88;;
24216;SDS011;12356;49.386;8.688;2022-09-09T12:33:20;5.68;;;1.25;;
24216;SDS011;12356;49.386;8.688;2022-09-09T12:35:55;4.13;;;0.97;;
24216;SDS011;12356;49.386;8.688;2022-09-09T12:38:32;4.57;;;0.98;;
24216;SDS011;12356;49.386;8.688;2022-09-09T12:41:06;5.00;;;0.80;;
24216;SDS011;12356;49.386;8.688;2022-09-09T12:43:49;4.55;;;0.90;;
24216;SDS011;12356;49.386;8.688;2022-09-09T12:46:22;3.20;;;0.70;;
24216;SDS011;12356;49.386;8.688;2022-09-09T12:49:02;2.80;;;0.85;;
24216;SDS011;12356;49.386;8.688;2022-09-09T12:51:33;4.07;;;1.20;;
24216;SDS011;12356;49.386;8.688;2022-09-09T12:54:04;3.47;;;1.17;;
24216;SDS011;12356;49.386;8.688;2022-09-09T12:56:35;5.50;;;0.80;;
24216;SDS011;12356;49.386;8.688;2022-09-09T12:59:17;5.13;;;0.80;;
24216;SDS011;12356;49.386;8.688;2022-09-09T13:01:57;4.65;;;0.90;;
24216;SDS011;12356;49.386;8.688;2022-09-09T13:04:28;4.15;;;1.10;;
24216;SDS011;12356;49.386;8.688;2022-09-09T13:07:06;2.70;;;0.82;;
24216;SDS011;12356;49.386;8.688;2022-09-09T13:09:40;5.03;;;1.00;;
24216;SDS011;12356;49.386;8.688;2022-09-09T13:12:13;4.10;;;0.80;;
24216;SDS011;12356;49.386;8.688;2022-09-09T13:14:54;4.22;;;1.13;;
24216;SDS011;12356;49.386;8.688;2022-09-09T13:17:26;3.90;;;0.90;;
24216;SDS011;12356;49.386;8.688;2022-09-09T13:20:00;3.47;;;0.90;;
24216;SDS011;12356;49.386;8.688;2022-09-09T13:22:36;2.38;;;0.82;;
24216;SDS011;12356;49.386;8.688;2022-09-09T13:27:40;2.20;;;0.77;;
24216;SDS011;12356;49.386;8.688;2022-09-09T13:33:21;6.85;;;0.70;;
24216;SDS011;12356;49.386;8.688;2022-09-09T13:35:56;0.70;;;0.43;;
24216;SDS011;12356;49.386;8.688;2022-09-09T13:38:29;1.67;;;0.60;;
24216;SDS011;12356;49.386;8.688;2022-09-09T13:41:06;0.52;;;0.32;;
24216;SDS011;12356;49.386;8.688;2022-09-09T13:43:43;2.92;;;0.50;;
24216;SDS011;12356;49.386;8.688;2022-09-09T13:51:45;3.40;;;0.50;;
24216;SDS011;12356;49.386;8.688;2022-09-09T13:54:37;3.03;;;0.55;;
24216;SDS011;12356;49.386;8.688;2022-09-09T13:57:15;1.85;;;0.70;;
24216;SDS011;12356;49.386;8.688;2022-09-09T13:59:50;4.15;;;0.50;;
24216;SDS011;12356;49.386;8.688;2022-09-09T14:02:22;2.42;;;0.70;;
24216;SDS011;12356;49.386;8.688;2022-09-09T14:04:54;2.85;;;0.60;;
24216;SDS011;12356;49.386;8.688;2022-09-09T14:07:25;3.53;;;0.73;;
24216;SDS011;12356;49.386;8.688;2022-09-09T14:09:55;1.67;;;0.40;;
24216;SDS011;12356;49.386;8.688;2022-09-09T14:12:26;3.42;;;0.60;;
24216;SDS011;12356;49.386;8.688;2022-09-09T14:14:57;3.15;;;0.60;;
24216;SDS011;12356;49.386;8.688;2022-09-09T14:17:29;1.55;;;0.50;;
24216;SDS011;12356;49.386;8.688;2022-09-09T14:20:02;1.35;;;0.40;;
24216;SDS011;12356;49.386;8.688;2022-09-09T14:22:36;0.80;;;0.40;;
24216;SDS011;12356;49.386;8.688;2022-09-09T14:25:06;2.15;;;0.40;;
24216;SDS011;12356;49.386;8.688;2022-09-09T14:27:38;2.22;;;0.50;;
24216;SDS011;12356;49.386;8.688;2022-09-09T14:30:09;2.00;;;0.50;;
24216;SDS011;12356;49.386;8.688;2022-09-09T14:32:40;3.58;;;0.70;;
24216;SDS011;12356;49.386;8.688;2022-09-09T14:35:11;1.20;;;0.40;;
24216;SDS011;12356;49.386;8.688;2022-09-09T14:37:42;2.53;;;0.70;;
24216;SDS011;12356;49.386;8.688;2022-09-09T14:40:13;3.03;;;0.60;;
24216;SDS011;12356;49.386;8.688;2022-09-09T14:42:45;2.20;;;0.65;;
24216;SDS011;12356;49.386;8.688;2022-09-09T14:45:15;2.95;;;0.77;;
24216;SDS011;12356;49.386;8.688;2022-09-09T14:47:46;1.17;;;0.40;;
24216;SDS011;12356;49.386;8.688;2022-09-09T14:50:17;3.53;;;0.88;;
24216;SDS011;12356;49.386;8.688;2022-09-09T14:52:49;2.45;;;0.75;;
24216;SDS011;12356;49.386;8.688;2022-09-09T14:55:20;2.40;;;0.70;;
24216;SDS011;12356;49.386;8.688;2022-09-09T14:57:51;3.70;;;0.82;;
24216;SDS011;12356;49.386;8.688;2022-09-09T15:00:22;1.90;;;0.60;;
24216;SDS011;12356;49.386;8.688;2022-09-09T15:02:53;2.33;;;0.80;;
24216;SDS011;12356;49.386;8.688;2022-09-09T15:05:24;5.03;;;1.30;;
24216;SDS011;12356;49.386;8.688;2022-09-09T15:07:54;2.50;;;0.85;;
24216;SDS011;12356;49.386;8.688;2022-09-09T15:10:26;2.58;;;0.70;;
24216;SDS011;12356;49.386;8.688;2022-09-09T15:12:57;4.20;;;1.20;;
24216;SDS011;12356;49.386;8.688;2022-09-09T15:15:27;3.67;;;1.20;;
24216;SDS011;12356;49.386;8.688;2022-09-09T15:17:58;2.25;;;0.73;;
24216;SDS011;12356;49.386;8.688;2022-09-09T15:20:28;4.95;;;0.85;;
24216;SDS011;12356;49.386;8.688;2022-09-09T15:22:59;2.80;;;0.70;;
24216;SDS011;12356;49.386;8.688;2022-09-09T15:25:29;4.95;;;1.00;;
24216;SDS011;12356;49.386;8.688;2022-09-09T15:28:00;3.40;;;1.00;;
24216;SDS011;12356;49.386;8.688;2022-09-09T15:30:31;2.85;;;0.90;;
24216;SDS011;12356;49.386;8.688;2022-09-09T15:33:01;2.65;;;0.60;;
24216;SDS011;12356;49.386;8.688;2022-09-09T15:35:38;3.10;;;0.80;;
24216;SDS011;12356;49.386;8.688;2022-09-09T15:38:08;3.83;;;0.80;;
24216;SDS011;12356;49.386;8.688;2022-09-09T15:40:39;1.33;;;0.60;;
24216;SDS011;12356;49.386;8.688;2022-09-09T15:43:10;3.75;;;0.50;;
24216;SDS011;12356;49.386;8.688;2022-09-09T15:45:40;4.95;;;1.00;;
24216;SDS011;12356;49.386;8.688;2022-09-09T15:48:11;3.20;;;0.93;;
24216;SDS011;12356;49.386;8.688;2022-09-09T15:50:42;8.07;;;1.23;;
24216;SDS011;12356;49.386;8.688;2022-09-09T15:53:12;10.88;;;1.20;;
24216;SDS011;12356;49.386;8.688;2022-09-09T15:55:43;8.55;;;1.20;;
24216;SDS011;12356;49.386;8.688;2022-09-09T15:58:14;5.60;;;1.15;;
24216;SDS011;12356;49.386;8.688;2022-09-09T16:00:45;2.53;;;0.75;;
24216;SDS011;12356;49.386;8.688;2022-09-09T16:03:16;5.25;;;0.98;;
24216;SDS011;12356;49.386;8.688;2022-09-09T16:05:50;2.63;;;0.80;;
24216;SDS011;12356;49.386;8.688;2022-09-09T16:08:21;5.32;;;0.95;;
24216;SDS011;12356;49.386;8.688;2022-09-09T16:10:52;5.07;;;1.23;;
24216;SDS011;12356;49.386;8.688;2022-09-09T16:13:22;3.33;;;1.10;;
24216;SDS011;12356;49.386;8.688;2022-09-09T16:15:53;5.22;;;1.10;;
24216;SDS011;12356;49.386;8.688;2022-09-09T16:18:24;3.17;;;0.80;;
24216;SDS011;12356;49.386;8.688;2022-09-09T16:20:55;6.35;;;0.80;;
24216;SDS011;12356;49.386;8.688;2022-09-09T16:23:25;1.98;;;0.60;;
24216;SDS011;12356;49.386;8.688;2022-09-09T16:25:57;3.03;;;0.85;;
24216;SDS011;12356;49.386;8.688;2022-09-09T16:28:27;4.22;;;1.25;;
24216;SDS011;12356;49.386;8.688;2022-09-09T16:30:58;3.90;;;0.90;;
24216;SDS011;12356;49.386;8.688;2022-09-09T16:33:33;3.88;;;1.00;;
24216;SDS011;12356;49.386;8.688;2022-09-09T16:36:08;2.70;;;0.90;;
24216;SDS011;12356;49.386;8.688;2022-09-09T16:38:42;3.28;;;0.90;;
24216;SDS011;12356;49.386;8.688;2022-09-09T16:41:13;3.55;;;1.00;;
24216;SDS011;12356;49.386;8.688;2022-09-09T16:43:44;4.40;;;1.00;;
24216;SDS011;12356;49.386;8.688;2022-09-09T16:46:16;2.70;;;0.90;;
24216;SDS011;12356;49.386;8.688;2022-09-09T16:48:48;3.40;;;0.80;;
24216;SDS011;12356;49.386;8.688;2022-09-09T16:51:20;4.78;;;1.02;;
24216;SDS011;12356;49.386;8.688;2022-09-09T16:53:57;5.47;;;1.00;;
24216;SDS011;12356;49.386;8.688;2022-09-09T16:56:30;4.03;;;1.00;;
24216;SDS011;12356;49.386;8.688;2022-09-09T16:59:07;5.85;;;1.02;;
24216;SDS011;12356;49.386;8.688;2022-09-09T17:01:44;3.20;;;0.93;;
24216;SDS011;12356;49.386;8.688;2022-09-09T17:06:51;4.05;;;0.93;;
24216;SDS011;12356;49.386;8.688;2022-09-09T17:09:22;3.90;;;1.38;;
24216;SDS011;12356;49.386;8.688;2022-09-09T17:11:54;4.13;;;1.20;;
24216;SDS011;12356;49.386;8.688;2022-09-09T17:14:25;3.20;;;1.00;;
24216;SDS011;12356;49.386;8.688;2022-09-09T17:16:55;3.85;;;1.23;;
24216;SDS011;12356;49.386;8.688;2022-09-09T17:19:27;2.40;;;1.05;;
24216;SDS011;12356;49.386;8.688;2022-09-09T17:21:58;4.78;;;1.20;;
24216;SDS011;12356;49.386;8.688;2022-09-09T17:24:28;4.63;;;1.20;;
24216;SDS011;12356;49.386;8.688;2022-09-09T17:26:59;3.78;;;1.10;;
24216;SDS011;12356;49.386;8.688;2022-09-09T17:29:31;5.97;;;1.20;;
24216;SDS011;12356;49.386;8.688;2022-09-09T17:32:02;5.47;;;1.10;;
24216;SDS011;12356;49.386;8.688;2022-09-09T17:34:35;3.17;;;1.20;;
24216;SDS011;12356;49.386;8.688;2022-09-09T17:37:06;3.80;;;1.20;;
24216;SDS011;12356;49.386;8.688;2022-09-09T17:39:36;5.88;;;1.00;;
24216;SDS011;12356;49.386;8.688;2022-09-09T17:42:07;1.92;;;0.85;;
24216;SDS011;12356;49.386;8.688;2022-09-09T17:44:38;4.13;;;1.15;;
24216;SDS011;12356;49.386;8.688;2022-09-09T17:47:09;2.72;;;0.90;;
24216;SDS011;12356;49.386;8.688;2022-09-09T17:49:40;2.60;;;0.77;;
24216;SDS011;12356;49.386;8.688;2022-09-09T17:52:11;3.53;;;1.23;;